createdAt,value
2018-09-03T00:01:35.575Z,19.90
2018-09-03T00:07:39.954Z,19.80
2018-09-03T00:13:43.959Z,19.80
2018-09-03T00:19:47.583Z,19.80
2018-09-03T00:25:51.001Z,19.80
2018-09-03T00:32:00.344Z,19.80
2018-09-03T00:38:09.313Z,19.80
2018-09-03T00:44:18.124Z,19.70
2018-09-03T00:50:21.889Z,19.70
2018-09-03T00:56:25.504Z,19.80
2018-09-03T01:02:29.380Z,19.70
2018-09-03T01:08:33.845Z,19.70
2018-09-03T01:14:37.439Z,19.60
2018-09-03T01:20:41.005Z,19.50
2018-09-03T01:26:44.602Z,19.40
2018-09-03T01:32:48.078Z,19.40
2018-09-03T01:38:51.536Z,19.40
2018-09-03T01:44:55.249Z,19.40
2018-09-03T01:50:58.724Z,19.40
2018-09-03T01:57:02.721Z,19.30
2018-09-03T02:03:07.039Z,19.10
2018-09-03T02:09:12.043Z,19.00
2018-09-03T02:15:15.684Z,18.90
2018-09-03T02:21:19.306Z,18.80
2018-09-03T02:27:22.778Z,18.80
2018-09-03T02:33:26.236Z,18.90
2018-09-03T02:39:29.998Z,19.00
2018-09-03T02:45:33.553Z,19.00
2018-09-03T02:51:37.182Z,18.90
2018-09-03T02:57:41.298Z,18.80
2018-09-03T03:03:45.383Z,18.70
2018-09-03T03:09:48.945Z,18.70
2018-09-03T03:15:52.502Z,18.60
2018-09-03T03:21:56.830Z,18.60
2018-09-03T03:28:00.275Z,18.50
2018-09-03T03:34:04.207Z,18.30
2018-09-03T03:40:07.869Z,18.20
2018-09-03T03:46:11.358Z,18.10
2018-09-03T03:52:14.997Z,18.20
2018-09-03T03:58:21.533Z,18.30
2018-09-03T04:04:26.115Z,18.40
2018-09-03T04:10:32.952Z,18.40
2018-09-03T04:16:36.868Z,18.30
2018-09-03T04:22:41.102Z,18.20
2018-09-03T04:28:47.490Z,18.20
2018-09-03T04:34:50.864Z,18.20
2018-09-03T04:40:54.355Z,18.20
2018-09-03T04:46:58.289Z,18.20
2018-09-03T04:53:01.845Z,18.20
2018-09-03T04:59:05.850Z,18.30
2018-09-03T05:05:09.497Z,18.40
2018-09-03T05:11:13.258Z,18.40
2018-09-03T05:17:17.002Z,18.30
2018-09-03T05:23:20.825Z,18.30
2018-09-03T05:29:25.151Z,18.30
2018-09-03T05:35:28.866Z,18.30
2018-09-03T05:41:32.494Z,18.30
2018-09-03T05:47:37.573Z,18.30
2018-09-03T05:53:41.138Z,18.30
2018-09-03T05:59:44.976Z,18.30
2018-09-03T06:05:48.994Z,18.30
2018-09-03T06:11:52.423Z,18.30
2018-09-03T06:17:57.117Z,18.40
2018-09-03T06:24:01.001Z,18.50
2018-09-03T06:30:05.036Z,18.60
2018-09-03T06:36:08.812Z,18.70
2018-09-03T06:42:13.094Z,18.80
2018-09-03T06:48:17.123Z,18.90
2018-09-03T06:54:20.852Z,18.90
2018-09-03T07:00:24.262Z,18.90
2018-09-03T07:06:27.729Z,19.00
2018-09-03T07:12:31.275Z,19.10
2018-09-03T07:18:34.823Z,19.30
2018-09-03T07:24:38.410Z,19.40
2018-09-03T07:30:42.635Z,19.50
2018-09-03T07:36:46.496Z,19.60
2018-09-03T07:42:50.505Z,19.70
2018-09-03T07:48:54.330Z,19.80
2018-09-03T07:54:58.094Z,19.90
2018-09-03T08:01:01.424Z,20.10
2018-09-03T08:07:05.164Z,20.30
2018-09-03T08:13:09.106Z,20.20
2018-09-03T08:19:12.975Z,20.30
2018-09-03T08:25:16.626Z,20.10
2018-09-03T08:31:20.498Z,20.10
2018-09-03T08:37:24.278Z,20.20
2018-09-03T08:43:27.941Z,20.30
2018-09-03T08:49:31.373Z,20.30
2018-09-03T08:55:35.097Z,20.30
2018-09-03T09:01:39.372Z,20.30
2018-09-03T09:07:42.912Z,20.30
2018-09-03T09:13:46.647Z,20.30
2018-09-03T09:19:50.982Z,20.30
2018-09-03T09:25:54.551Z,20.40
2018-09-03T09:31:58.352Z,20.60
2018-09-03T09:38:02.122Z,20.70
2018-09-03T09:44:05.866Z,21.10
2018-09-03T09:50:10.249Z,21.20
2018-09-03T09:56:17.817Z,21.10
2018-09-03T10:02:21.529Z,21.20
2018-09-03T10:08:25.142Z,21.30
2018-09-03T10:14:28.719Z,21.40
2018-09-03T10:20:32.491Z,21.30
2018-09-03T10:26:35.949Z,21.40
2018-09-03T10:32:45.916Z,21.60
2018-09-03T10:38:49.648Z,22.10
2018-09-03T10:44:53.706Z,22.60
2018-09-03T10:50:57.272Z,22.70
2018-09-03T10:57:02.217Z,22.80
2018-09-03T11:03:06.188Z,22.90
2018-09-03T11:09:11.033Z,23.00
2018-09-03T11:15:14.949Z,23.00
2018-09-03T11:21:18.649Z,23.00
2018-09-03T11:27:22.471Z,22.90
2018-09-03T11:33:26.714Z,22.80
2018-09-03T11:39:34.793Z,22.90
2018-09-03T11:45:38.437Z,22.90
2018-09-03T11:51:41.909Z,23.10
2018-09-03T11:57:45.357Z,23.30
2018-09-03T12:03:48.886Z,23.30
2018-09-03T12:09:52.592Z,23.40
2018-09-03T12:16:28.315Z,23.50
2018-09-03T12:22:32.755Z,23.80
2018-09-03T12:28:36.802Z,24.20
2018-09-03T12:34:40.756Z,24.00
2018-09-03T12:40:44.233Z,24.00
2018-09-03T12:46:47.925Z,23.90
2018-09-03T12:52:52.219Z,23.70
2018-09-03T12:58:56.231Z,23.60
2018-09-03T13:05:03.932Z,23.50
2018-09-03T13:11:08.325Z,23.60
2018-09-03T13:17:13.150Z,23.80
2018-09-03T13:23:19.721Z,24.10
2018-09-03T13:29:23.141Z,24.40
2018-09-03T13:35:26.998Z,24.60
2018-09-03T13:41:32.238Z,24.70
2018-09-03T13:47:36.215Z,24.70
2018-09-03T13:53:39.921Z,24.90
2018-09-03T13:59:44.697Z,24.90
2018-09-03T14:05:48.782Z,25.00
2018-09-03T14:11:53.155Z,24.80
2018-09-03T14:17:57.686Z,24.60
2018-09-03T14:24:01.634Z,24.50
2018-09-03T14:30:06.182Z,24.60
2018-09-03T14:36:10.051Z,24.70
2018-09-03T14:42:14.285Z,24.70
2018-09-03T14:48:17.948Z,24.50
2018-09-03T14:54:22.058Z,24.40
2018-09-03T15:00:25.636Z,24.20
2018-09-03T15:06:29.651Z,24.10
2018-09-03T15:12:33.551Z,23.90
2018-09-03T15:18:37.898Z,23.70
2018-09-03T15:24:46.684Z,23.60
2018-09-03T15:30:53.949Z,23.50
2018-09-03T15:36:57.882Z,23.50
2018-09-03T15:43:02.262Z,23.50
2018-09-03T15:49:06.114Z,23.60
2018-09-03T15:55:14.256Z,23.60
2018-09-03T16:01:18.979Z,23.50
2018-09-03T16:07:24.876Z,23.40
2018-09-03T16:13:33.498Z,23.30
2018-09-03T16:19:45.824Z,23.20
2018-09-03T16:25:50.905Z,23.10
2018-09-03T16:31:54.906Z,23.00
2018-09-03T16:37:58.860Z,23.00
2018-09-03T16:44:03.110Z,22.90
2018-09-03T16:50:07.210Z,23.00
2018-09-03T16:56:10.845Z,23.00
2018-09-03T17:02:14.778Z,22.90
2018-09-03T17:08:18.788Z,22.90
2018-09-03T17:14:22.749Z,22.90
2018-09-03T17:20:27.111Z,22.90
2018-09-03T17:26:30.967Z,22.80
2018-09-03T17:32:41.681Z,22.80
2018-09-03T17:38:45.487Z,22.70
2018-09-03T17:44:49.657Z,22.70
2018-09-03T17:50:54.498Z,22.60
2018-09-03T17:56:59.270Z,22.60
2018-09-03T18:03:02.706Z,22.50
2018-09-03T18:09:08.341Z,22.40
2018-09-03T18:15:12.159Z,22.30
2018-09-03T18:21:15.812Z,22.20
2018-09-03T18:27:19.449Z,22.10
2018-09-03T18:33:23.173Z,22.00
2018-09-03T18:39:26.904Z,22.00
2018-09-03T18:45:30.961Z,21.90
2018-09-03T18:51:34.618Z,21.90
2018-09-03T18:57:43.621Z,21.90
2018-09-03T19:03:47.339Z,21.90
2018-09-03T19:09:52.113Z,21.90
2018-09-03T19:15:55.550Z,21.80
2018-09-03T19:21:59.306Z,21.70
2018-09-03T19:28:02.721Z,21.60
2018-09-03T19:34:06.475Z,21.60
2018-09-03T19:40:10.454Z,21.60
2018-09-03T19:46:14.252Z,21.60
2018-09-03T19:52:17.588Z,21.60
2018-09-03T19:58:22.358Z,21.60
2018-09-03T20:04:26.384Z,21.60
2018-09-03T20:10:30.313Z,21.40
2018-09-03T20:16:33.996Z,21.30
2018-09-03T20:22:37.951Z,21.20
2018-09-03T20:28:41.822Z,21.10
2018-09-03T20:34:45.493Z,21.00
2018-09-03T20:40:48.963Z,20.90
2018-09-03T20:46:52.918Z,20.80
2018-09-03T20:52:56.481Z,20.70
2018-09-03T20:59:06.802Z,20.70
2018-09-03T21:05:10.206Z,20.60
2018-09-03T21:11:13.796Z,20.50
2018-09-03T21:17:17.478Z,20.40
2018-09-03T21:23:21.094Z,20.40
2018-09-03T21:29:24.446Z,20.40
2018-09-03T21:35:27.941Z,20.40
2018-09-03T21:41:31.465Z,20.40
2018-09-03T21:47:35.080Z,20.40
2018-09-03T21:53:38.990Z,20.50
2018-09-03T21:59:42.374Z,20.50
2018-09-03T22:05:46.113Z,20.30
2018-09-03T22:11:49.510Z,20.10
2018-09-03T22:17:53.222Z,19.90
2018-09-03T22:23:56.590Z,19.80
2018-09-03T22:30:00.072Z,19.60
2018-09-03T22:36:04.119Z,19.50
2018-09-03T22:42:07.838Z,19.40
2018-09-03T22:48:11.367Z,19.30
2018-09-03T22:54:14.901Z,19.20
2018-09-03T23:00:18.622Z,19.10
2018-09-03T23:06:23.186Z,19.00
2018-09-03T23:12:26.775Z,19.00
2018-09-03T23:18:31.119Z,18.90
2018-09-03T23:24:34.872Z,18.70
2018-09-03T23:30:39.686Z,18.70
2018-09-03T23:36:43.245Z,18.60
2018-09-03T23:42:47.081Z,18.40
2018-09-03T23:48:50.846Z,18.30
2018-09-03T23:54:54.887Z,18.30
